sensor_id;sensor_type;location;lat;lon;timestamp;P1;durP1;ratioP1;P2;durP2;ratioP2
3563;SDS011;1796;52.388;13.096;2023-12-14T00:01:45;9.60;;;6.70;;
3563;SDS011;1796;52.388;13.096;2023-12-14T00:04:13;8.87;;;6.40;;
3563;SDS011;1796;52.388;13.096;2023-12-14T00:06:41;8.83;;;7.20;;
3563;SDS011;1796;52.388;13.096;2023-12-14T00:09:08;10.83;;;7.53;;
3563;SDS011;1796;52.388;13.096;2023-12-14T00:11:37;9.53;;;6.90;;
3563;SDS011;1796;52.388;13.096;2023-12-14T00:14:04;12.83;;;7.67;;
3563;SDS011;1796;52.388;13.096;2023-12-14T00:16:31;10.83;;;7.10;;
3563;SDS011;1796;52.388;13.096;2023-12-14T00:18:58;20.73;;;7.83;;
3563;SDS011;1796;52.388;13.096;2023-12-14T00:21:25;12.53;;;7.00;;
3563;SDS011;1796;52.388;13.096;2023-12-14T00:23:53;13.93;;;7.73;;
3563;SDS011;1796;52.388;13.096;2023-12-14T00:26:20;10.63;;;7.20;;
3563;SDS011;1796;52.388;13.096;2023-12-14T00:28:46;14.53;;;7.73;;
3563;SDS011;1796;52.388;13.096;2023-12-14T00:31:13;15.73;;;9.33;;
3563;SDS011;1796;52.388;13.096;2023-12-14T00:33:40;14.50;;;8.13;;
3563;SDS011;1796;52.388;13.096;2023-12-14T00:36:07;11.70;;;7.97;;
3563;SDS011;1796;52.388;13.096;2023-12-14T00:38:34;13.37;;;8.43;;
3563;SDS011;1796;52.388;13.096;2023-12-14T00:41:03;14.30;;;8.30;;
3563;SDS011;1796;52.388;13.096;2023-12-14T00:43:30;16.70;;;8.93;;
3563;SDS011;1796;52.388;13.096;2023-12-14T00:45:56;15.70;;;9.10;;
3563;SDS011;1796;52.388;13.096;2023-12-14T00:48:23;16.40;;;9.67;;
3563;SDS011;1796;52.388;13.096;2023-12-14T00:50:50;14.93;;;9.27;;
3563;SDS011;1796;52.388;13.096;2023-12-14T00:53:17;15.17;;;8.87;;
3563;SDS011;1796;52.388;13.096;2023-12-14T00:55:45;14.50;;;9.30;;
3563;SDS011;1796;52.388;13.096;2023-12-14T00:58:13;20.83;;;9.70;;
3563;SDS011;1796;52.388;13.096;2023-12-14T01:00:40;14.77;;;8.70;;
3563;SDS011;1796;52.388;13.096;2023-12-14T01:03:08;17.10;;;8.80;;
3563;SDS011;1796;52.388;13.096;2023-12-14T01:05:34;15.60;;;9.47;;
3563;SDS011;1796;52.388;13.096;2023-12-14T01:08:01;17.20;;;9.70;;
3563;SDS011;1796;52.388;13.096;2023-12-14T01:10:28;14.93;;;8.53;;
3563;SDS011;1796;52.388;13.096;2023-12-14T01:12:55;13.70;;;8.20;;
3563;SDS011;1796;52.388;13.096;2023-12-14T01:15:23;17.37;;;10.10;;
3563;SDS011;1796;52.388;13.096;2023-12-14T01:17:50;18.03;;;9.27;;
3563;SDS011;1796;52.388;13.096;2023-12-14T01:20:17;16.67;;;9.27;;
3563;SDS011;1796;52.388;13.096;2023-12-14T01:22:44;20.47;;;10.20;;
3563;SDS011;1796;52.388;13.096;2023-12-14T01:25:10;16.60;;;9.90;;
3563;SDS011;1796;52.388;13.096;2023-12-14T01:27:37;16.30;;;10.20;;
3563;SDS011;1796;52.388;13.096;2023-12-14T01:30:05;17.10;;;10.40;;
3563;SDS011;1796;52.388;13.096;2023-12-14T01:32:34;26.67;;;11.43;;
3563;SDS011;1796;52.388;13.096;2023-12-14T01:35:01;17.60;;;9.70;;
3563;SDS011;1796;52.388;13.096;2023-12-14T01:37:28;26.03;;;10.47;;
3563;SDS011;1796;52.388;13.096;2023-12-14T01:39:55;26.97;;;12.60;;
3563;SDS011;1796;52.388;13.096;2023-12-14T01:42:21;16.00;;;9.60;;
3563;SDS011;1796;52.388;13.096;2023-12-14T01:44:48;19.33;;;9.97;;
3563;SDS011;1796;52.388;13.096;2023-12-14T01:47:15;21.73;;;8.40;;
3563;SDS011;1796;52.388;13.096;2023-12-14T01:49:43;16.03;;;9.40;;
3563;SDS011;1796;52.388;13.096;2023-12-14T01:52:10;16.87;;;9.27;;
3563;SDS011;1796;52.388;13.096;2023-12-14T01:54:37;15.63;;;8.70;;
3563;SDS011;1796;52.388;13.096;2023-12-14T01:57:04;28.60;;;8.73;;
3563;SDS011;1796;52.388;13.096;2023-12-14T01:59:31;18.93;;;10.03;;
3563;SDS011;1796;52.388;13.096;2023-12-14T02:01:58;18.10;;;9.50;;
3563;SDS011;1796;52.388;13.096;2023-12-14T02:04:26;12.67;;;8.50;;
3563;SDS011;1796;52.388;13.096;2023-12-14T02:06:54;23.23;;;9.30;;
3563;SDS011;1796;52.388;13.096;2023-12-14T02:09:21;14.70;;;8.20;;
3563;SDS011;1796;52.388;13.096;2023-12-14T02:11:48;13.83;;;9.27;;
3563;SDS011;1796;52.388;13.096;2023-12-14T02:14:15;17.80;;;8.27;;
3563;SDS011;1796;52.388;13.096;2023-12-14T02:16:42;14.23;;;9.00;;
3563;SDS011;1796;52.388;13.096;2023-12-14T02:19:09;18.50;;;9.30;;
3563;SDS011;1796;52.388;13.096;2023-12-14T02:21:35;16.93;;;9.73;;
3563;SDS011;1796;52.388;13.096;2023-12-14T02:24:04;14.03;;;8.20;;
3563;SDS011;1796;52.388;13.096;2023-12-14T02:26:31;19.13;;;9.40;;
3563;SDS011;1796;52.388;13.096;2023-12-14T02:28:58;16.50;;;9.10;;
3563;SDS011;1796;52.388;13.096;2023-12-14T02:31:25;11.13;;;7.97;;
3563;SDS011;1796;52.388;13.096;2023-12-14T02:33:51;12.80;;;8.50;;
3563;SDS011;1796;52.388;13.096;2023-12-14T02:36:18;13.00;;;9.40;;
3563;SDS011;1796;52.388;13.096;2023-12-14T02:38:45;13.43;;;7.63;;
3563;SDS011;1796;52.388;13.096;2023-12-14T02:41:13;11.10;;;7.70;;
3563;SDS011;1796;52.388;13.096;2023-12-14T02:43:40;14.30;;;8.43;;
3563;SDS011;1796;52.388;13.096;2023-12-14T02:46:07;11.90;;;7.93;;
3563;SDS011;1796;52.388;13.096;2023-12-14T02:48:36;7.63;;;6.83;;
3563;SDS011;1796;52.388;13.096;2023-12-14T02:51:04;14.73;;;8.13;;
3563;SDS011;1796;52.388;13.096;2023-12-14T02:53:31;10.70;;;7.60;;
3563;SDS011;1796;52.388;13.096;2023-12-14T02:56:00;11.57;;;7.40;;
3563;SDS011;1796;52.388;13.096;2023-12-14T02:58:29;12.83;;;7.50;;
3563;SDS011;1796;52.388;13.096;2023-12-14T03:00:56;10.80;;;7.27;;
3563;SDS011;1796;52.388;13.096;2023-12-14T03:03:22;11.07;;;7.40;;
3563;SDS011;1796;52.388;13.096;2023-12-14T03:05:49;13.40;;;8.00;;
3563;SDS011;1796;52.388;13.096;2023-12-14T03:08:16;14.90;;;7.57;;
3563;SDS011;1796;52.388;13.096;2023-12-14T03:10:43;12.80;;;7.27;;
3563;SDS011;1796;52.388;13.096;2023-12-14T03:13:10;15.37;;;8.20;;
3563;SDS011;1796;52.388;13.096;2023-12-14T03:15:38;16.70;;;9.20;;
3563;SDS011;1796;52.388;13.096;2023-12-14T03:18:05;14.53;;;9.17;;
3563;SDS011;1796;52.388;13.096;2023-12-14T03:20:32;16.00;;;8.90;;
3563;SDS011;1796;52.388;13.096;2023-12-14T03:22:58;16.60;;;9.50;;
3563;SDS011;1796;52.388;13.096;2023-12-14T03:25:25;16.67;;;9.97;;
3563;SDS011;1796;52.388;13.096;2023-12-14T03:27:52;17.30;;;10.43;;
3563;SDS011;1796;52.388;13.096;2023-12-14T03:30:19;18.77;;;9.80;;
3563;SDS011;1796;52.388;13.096;2023-12-14T03:32:47;20.03;;;9.77;;
3563;SDS011;1796;52.388;13.096;2023-12-14T03:35:14;22.90;;;11.50;;
3563;SDS011;1796;52.388;13.096;2023-12-14T03:37:41;20.20;;;10.63;;
3563;SDS011;1796;52.388;13.096;2023-12-14T03:40:08;22.00;;;10.00;;
3563;SDS011;1796;52.388;13.096;2023-12-14T03:42:35;13.33;;;8.30;;
3563;SDS011;1796;52.388;13.096;2023-12-14T03:45:02;20.73;;;9.50;;
3563;SDS011;1796;52.388;13.096;2023-12-14T03:47:30;16.87;;;10.10;;
3563;SDS011;1796;52.388;13.096;2023-12-14T03:49:58;15.57;;;9.07;;
3563;SDS011;1796;52.388;13.096;2023-12-14T03:52:25;16.30;;;9.13;;
3563;SDS011;1796;52.388;13.096;2023-12-14T03:54:53;21.13;;;10.50;;
3563;SDS011;1796;52.388;13.096;2023-12-14T03:57:20;17.17;;;10.10;;
3563;SDS011;1796;52.388;13.096;2023-12-14T03:59:46;17.03;;;9.10;;
3563;SDS011;1796;52.388;13.096;2023-12-14T04:02:13;19.00;;;9.07;;
3563;SDS011;1796;52.388;13.096;2023-12-14T04:04:40;17.67;;;9.10;;
3563;SDS011;1796;52.388;13.096;2023-12-14T04:07:08;17.30;;;9.37;;
3563;SDS011;1796;52.388;13.096;2023-12-14T04:09:35;20.60;;;9.80;;
3563;SDS011;1796;52.388;13.096;2023-12-14T04:12:02;18.43;;;9.40;;
3563;SDS011;1796;52.388;13.096;2023-12-14T04:14:29;20.13;;;10.20;;
3563;SDS011;1796;52.388;13.096;2023-12-14T04:16:56;15.87;;;9.33;;
3563;SDS011;1796;52.388;13.096;2023-12-14T04:19:23;15.10;;;9.10;;
3563;SDS011;1796;52.388;13.096;2023-12-14T04:21:50;16.20;;;9.87;;
3563;SDS011;1796;52.388;13.096;2023-12-14T04:24:19;16.93;;;10.83;;
3563;SDS011;1796;52.388;13.096;2023-12-14T04:26:47;21.27;;;11.07;;
3563;SDS011;1796;52.388;13.096;2023-12-14T04:29:14;25.37;;;10.13;;
3563;SDS011;1796;52.388;13.096;2023-12-14T04:31:40;19.87;;;10.13;;
3563;SDS011;1796;52.388;13.096;2023-12-14T04:34:07;21.37;;;11.07;;
3563;SDS011;1796;52.388;13.096;2023-12-14T04:36:38;20.37;;;10.33;;
3563;SDS011;1796;52.388;13.096;2023-12-14T04:39:05;25.57;;;11.67;;
3563;SDS011;1796;52.388;13.096;2023-12-14T04:41:34;20.20;;;10.80;;
3563;SDS011;1796;52.388;13.096;2023-12-14T04:44:00;21.70;;;10.83;;
3563;SDS011;1796;52.388;13.096;2023-12-14T04:46:27;21.03;;;11.20;;
3563;SDS011;1796;52.388;13.096;2023-12-14T04:48:54;19.80;;;10.73;;
3563;SDS011;1796;52.388;13.096;2023-12-14T04:51:21;20.23;;;10.27;;
3563;SDS011;1796;52.388;13.096;2023-12-14T04:53:48;18.07;;;10.40;;
3563;SDS011;1796;52.388;13.096;2023-12-14T04:56:15;16.63;;;10.00;;
3563;SDS011;1796;52.388;13.096;2023-12-14T04:58:43;16.23;;;8.53;;
3563;SDS011;1796;52.388;13.096;2023-12-14T05:01:11;17.20;;;8.97;;
3563;SDS011;1796;52.388;13.096;2023-12-14T05:03:38;16.90;;;8.70;;
3563;SDS011;1796;52.388;13.096;2023-12-14T05:06:05;14.53;;;9.17;;
3563;SDS011;1796;52.388;13.096;2023-12-14T05:08:32;14.57;;;8.20;;
3563;SDS011;1796;52.388;13.096;2023-12-14T05:10:59;15.07;;;8.60;;
3563;SDS011;1796;52.388;13.096;2023-12-14T05:13:26;12.47;;;7.80;;
3563;SDS011;1796;52.388;13.096;2023-12-14T05:15:54;14.53;;;8.17;;
3563;SDS011;1796;52.388;13.096;2023-12-14T05:18:22;16.80;;;8.80;;
3563;SDS011;1796;52.388;13.096;2023-12-14T05:20:50;13.40;;;8.17;;
3563;SDS011;1796;52.388;13.096;2023-12-14T05:23:16;16.50;;;7.90;;
3563;SDS011;1796;52.388;13.096;2023-12-14T05:25:43;15.83;;;8.70;;
3563;SDS011;1796;52.388;13.096;2023-12-14T05:28:10;15.73;;;8.30;;
3563;SDS011;1796;52.388;13.096;2023-12-14T05:30:37;18.90;;;8.63;;
3563;SDS011;1796;52.388;13.096;2023-12-14T05:33:05;17.20;;;8.97;;
3563;SDS011;1796;52.388;13.096;2023-12-14T05:35:32;19.17;;;8.70;;
3563;SDS011;1796;52.388;13.096;2023-12-14T05:37:59;13.40;;;8.57;;
3563;SDS011;1796;52.388;13.096;2023-12-14T05:40:26;20.80;;;9.80;;
3563;SDS011;1796;52.388;13.096;2023-12-14T05:42:54;14.33;;;8.47;;
3563;SDS011;1796;52.388;13.096;2023-12-14T05:45:21;20.77;;;8.90;;
3563;SDS011;1796;52.388;13.096;2023-12-14T05:47:48;16.60;;;9.00;;
3563;SDS011;1796;52.388;13.096;2023-12-14T05:50:17;17.33;;;8.67;;
3563;SDS011;1796;52.388;13.096;2023-12-14T05:52:44;16.63;;;9.60;;
3563;SDS011;1796;52.388;13.096;2023-12-14T05:55:11;15.93;;;8.10;;
3563;SDS011;1796;52.388;13.096;2023-12-14T05:57:38;20.67;;;9.10;;
3563;SDS011;1796;52.388;13.096;2023-12-14T06:00:05;16.50;;;9.10;;
3563;SDS011;1796;52.388;13.096;2023-12-14T06:02:33;14.73;;;8.47;;
3563;SDS011;1796;52.388;13.096;2023-12-14T06:05:02;20.63;;;8.23;;
3563;SDS011;1796;52.388;13.096;2023-12-14T06:07:30;19.70;;;8.53;;
3563;SDS011;1796;52.388;13.096;2023-12-14T06:09:57;20.67;;;9.10;;
3563;SDS011;1796;52.388;13.096;2023-12-14T06:12:25;17.43;;;9.40;;
3563;SDS011;1796;52.388;13.096;2023-12-14T06:14:53;12.90;;;8.20;;
3563;SDS011;1796;52.388;13.096;2023-12-14T06:17:20;14.57;;;8.73;;
3563;SDS011;1796;52.388;13.096;2023-12-14T06:19:47;17.47;;;8.97;;
3563;SDS011;1796;52.388;13.096;2023-12-14T06:22:14;16.40;;;8.30;;
3563;SDS011;1796;52.388;13.096;2023-12-14T06:24:42;13.73;;;7.93;;
3563;SDS011;1796;52.388;13.096;2023-12-14T06:27:09;19.07;;;8.63;;
3563;SDS011;1796;52.388;13.096;2023-12-14T06:29:36;21.27;;;9.63;;
3563;SDS011;1796;52.388;13.096;2023-12-14T06:32:03;20.90;;;9.80;;
3563;SDS011;1796;52.388;13.096;2023-12-14T06:34:30;13.40;;;7.90;;
3563;SDS011;1796;52.388;13.096;2023-12-14T06:36:57;20.70;;;8.53;;
3563;SDS011;1796;52.388;13.096;2023-12-14T06:39:25;21.70;;;9.43;;
3563;SDS011;1796;52.388;13.096;2023-12-14T06:41:53;14.43;;;7.80;;
3563;SDS011;1796;52.388;13.096;2023-12-14T06:44:20;12.77;;;8.90;;
3563;SDS011;1796;52.388;13.096;2023-12-14T06:46:47;15.87;;;8.57;;
3563;SDS011;1796;52.388;13.096;2023-12-14T06:49:13;24.83;;;9.00;;
3563;SDS011;1796;52.388;13.096;2023-12-14T06:51:41;14.10;;;9.70;;
3563;SDS011;1796;52.388;13.096;2023-12-14T06:54:08;13.97;;;9.40;;
3563;SDS011;1796;52.388;13.096;2023-12-14T06:56:36;15.50;;;8.80;;
3563;SDS011;1796;52.388;13.096;2023-12-14T06:59:04;15.10;;;8.70;;
3563;SDS011;1796;52.388;13.096;2023-12-14T07:01:31;15.30;;;10.10;;
3563;SDS011;1796;52.388;13.096;2023-12-14T07:03:57;13.23;;;9.13;;
3563;SDS011;1796;52.388;13.096;2023-12-14T07:06:24;28.27;;;10.00;;
3563;SDS011;1796;52.388;13.096;2023-12-14T07:08:51;16.10;;;9.13;;
3563;SDS011;1796;52.388;13.096;2023-12-14T07:11:18;12.40;;;8.33;;
3563;SDS011;1796;52.388;13.096;2023-12-14T07:13:45;18.00;;;9.20;;
3563;SDS011;1796;52.388;13.096;2023-12-14T07:16:13;13.93;;;9.80;;
3563;SDS011;1796;52.388;13.096;2023-12-14T07:18:42;14.87;;;8.60;;
3563;SDS011;1796;52.388;13.096;2023-12-14T07:21:09;13.03;;;9.60;;
3563;SDS011;1796;52.388;13.096;2023-12-14T07:23:36;16.80;;;9.47;;
3563;SDS011;1796;52.388;13.096;2023-12-14T07:26:03;17.03;;;9.50;;
3563;SDS011;1796;52.388;13.096;2023-12-14T07:28:30;14.93;;;8.73;;
3563;SDS011;1796;52.388;13.096;2023-12-14T07:30:57;16.30;;;8.43;;
3563;SDS011;1796;52.388;13.096;2023-12-14T07:33:25;12.57;;;8.60;;
3563;SDS011;1796;52.388;13.096;2023-12-14T07:35:52;10.73;;;7.80;;
3563;SDS011;1796;52.388;13.096;2023-12-14T07:38:19;13.50;;;8.50;;
3563;SDS011;1796;52.388;13.096;2023-12-14T07:40:46;19.43;;;8.57;;
3563;SDS011;1796;52.388;13.096;2023-12-14T07:43:15;10.90;;;8.53;;
3563;SDS011;1796;52.388;13.096;2023-12-14T07:45:42;12.53;;;8.50;;
3563;SDS011;1796;52.388;13.096;2023-12-14T07:48:09;14.50;;;8.97;;
3563;SDS011;1796;52.388;13.096;2023-12-14T07:50:37;12.67;;;8.30;;
3563;SDS011;1796;52.388;13.096;2023-12-14T07:53:04;14.60;;;9.10;;
3563;SDS011;1796;52.388;13.096;2023-12-14T07:55:31;18.67;;;9.07;;
3563;SDS011;1796;52.388;13.096;2023-12-14T07:57:58;12.17;;;9.13;;
3563;SDS011;1796;52.388;13.096;2023-12-14T08:00:24;16.03;;;9.03;;
3563;SDS011;1796;52.388;13.096;2023-12-14T08:02:51;19.40;;;9.20;;
3563;SDS011;1796;52.388;13.096;2023-12-14T08:05:18;13.20;;;9.40;;
3563;SDS011;1796;52.388;13.096;2023-12-14T08:07:46;16.33;;;9.03;;
3563;SDS011;1796;52.388;13.096;2023-12-14T08:10:17;11.77;;;8.33;;
3563;SDS011;1796;52.388;13.096;2023-12-14T08:12:44;13.47;;;9.23;;
3563;SDS011;1796;52.388;13.096;2023-12-14T08:15:12;16.90;;;8.30;;
3563;SDS011;1796;52.388;13.096;2023-12-14T08:17:39;13.13;;;8.20;;
3563;SDS011;1796;52.388;13.096;2023-12-14T08:20:06;11.27;;;8.60;;
3563;SDS011;1796;52.388;13.096;2023-12-14T08:22:36;13.47;;;7.90;;
3563;SDS011;1796;52.388;13.096;2023-12-14T08:25:10;11.97;;;7.97;;
3563;SDS011;1796;52.388;13.096;2023-12-14T08:27:38;11.57;;;8.00;;
3563;SDS011;1796;52.388;13.096;2023-12-14T08:30:05;10.33;;;7.93;;
3563;SDS011;1796;52.388;13.096;2023-12-14T08:32:33;10.00;;;7.73;;
3563;SDS011;1796;52.388;13.096;2023-12-14T08:35:00;12.80;;;6.80;;
3563;SDS011;1796;52.388;13.096;2023-12-14T08:37:27;12.07;;;8.33;;
3563;SDS011;1796;52.388;13.096;2023-12-14T08:39:53;12.67;;;8.40;;
3563;SDS011;1796;52.388;13.096;2023-12-14T08:42:22;9.40;;;8.00;;
3563;SDS011;1796;52.388;13.096;2023-12-14T08:44:49;11.53;;;7.77;;
3563;SDS011;1796;52.388;13.096;2023-12-14T08:47:16;13.73;;;8.20;;
3563;SDS011;1796;52.388;13.096;2023-12-14T08:49:43;13.57;;;7.90;;
3563;SDS011;1796;52.388;13.096;2023-12-14T08:52:10;12.13;;;7.90;;
3563;SDS011;1796;52.388;13.096;2023-12-14T08:54:39;10.80;;;8.20;;
3563;SDS011;1796;52.388;13.096;2023-12-14T08:57:08;12.37;;;8.47;;
3563;SDS011;1796;52.388;13.096;2023-12-14T08:59:37;15.37;;;8.60;;
3563;SDS011;1796;52.388;13.096;2023-12-14T09:02:04;11.40;;;8.30;;
3563;SDS011;1796;52.388;13.096;2023-12-14T09:04:31;25.33;;;9.77;;
3563;SDS011;1796;52.388;13.096;2023-12-14T09:07:01;16.37;;;9.67;;
3563;SDS011;1796;52.388;13.096;2023-12-14T09:09:29;15.03;;;9.77;;
3563;SDS011;1796;52.388;13.096;2023-12-14T09:11:57;17.50;;;10.10;;
3563;SDS011;1796;52.388;13.096;2023-12-14T09:14:24;12.60;;;8.37;;
3563;SDS011;1796;52.388;13.096;2023-12-14T09:16:53;15.50;;;10.53;;
3563;SDS011;1796;52.388;13.096;2023-12-14T09:19:20;17.37;;;10.50;;
3563;SDS011;1796;52.388;13.096;2023-12-14T09:21:47;18.03;;;10.53;;
3563;SDS011;1796;52.388;13.096;2023-12-14T09:24:14;15.27;;;10.07;;
3563;SDS011;1796;52.388;13.096;2023-12-14T09:26:41;19.03;;;11.30;;
3563;SDS011;1796;52.388;13.096;2023-12-14T09:29:08;17.13;;;10.90;;
3563;SDS011;1796;52.388;13.096;2023-12-14T09:31:34;19.37;;;11.33;;
3563;SDS011;1796;52.388;13.096;2023-12-14T09:34:03;21.53;;;11.40;;
3563;SDS011;1796;52.388;13.096;2023-12-14T09:36:30;22.07;;;10.33;;
3563;SDS011;1796;52.388;13.096;2023-12-14T09:38:57;19.17;;;11.60;;
3563;SDS011;1796;52.388;13.096;2023-12-14T09:41:24;17.57;;;11.80;;
3563;SDS011;1796;52.388;13.096;2023-12-14T09:43:51;25.03;;;11.03;;
3563;SDS011;1796;52.388;13.096;2023-12-14T09:46:18;16.17;;;10.87;;
3563;SDS011;1796;52.388;13.096;2023-12-14T09:48:47;15.30;;;10.37;;
3563;SDS011;1796;52.388;13.096;2023-12-14T09:51:17;20.20;;;11.43;;
3563;SDS011;1796;52.388;13.096;2023-12-14T09:53:44;21.03;;;10.97;;
3563;SDS011;1796;52.388;13.096;2023-12-14T09:56:11;17.53;;;10.93;;
3563;SDS011;1796;52.388;13.096;2023-12-14T09:58:38;16.93;;;10.80;;
3563;SDS011;1796;52.388;13.096;2023-12-14T10:03:50;18.43;;;10.60;;
3563;SDS011;1796;52.388;13.096;2023-12-14T10:06:33;17.70;;;11.20;;
3563;SDS011;1796;52.388;13.096;2023-12-14T10:09:00;21.60;;;11.20;;
3563;SDS011;1796;52.388;13.096;2023-12-14T10:11:28;16.67;;;10.43;;
3563;SDS011;1796;52.388;13.096;2023-12-14T10:13:55;19.80;;;11.27;;
3563;SDS011;1796;52.388;13.096;2023-12-14T10:16:28;20.83;;;12.07;;
3563;SDS011;1796;52.388;13.096;2023-12-14T10:18:56;21.23;;;11.40;;
3563;SDS011;1796;52.388;13.096;2023-12-14T10:21:23;26.53;;;12.07;;
3563;SDS011;1796;52.388;13.096;2023-12-14T10:23:52;21.00;;;12.50;;
3563;SDS011;1796;52.388;13.096;2023-12-14T10:26:21;19.40;;;11.23;;
3563;SDS011;1796;52.388;13.096;2023-12-14T10:28:49;18.27;;;11.30;;
3563;SDS011;1796;52.388;13.096;2023-12-14T10:31:17;25.03;;;12.30;;
3563;SDS011;1796;52.388;13.096;2023-12-14T10:33:44;19.23;;;11.00;;
3563;SDS011;1796;52.388;13.096;2023-12-14T10:36:12;22.67;;;12.13;;
3563;SDS011;1796;52.388;13.096;2023-12-14T10:38:39;17.83;;;10.80;;
3563;SDS011;1796;52.388;13.096;2023-12-14T10:41:10;22.63;;;11.53;;
3563;SDS011;1796;52.388;13.096;2023-12-14T10:43:39;22.83;;;11.53;;
3563;SDS011;1796;52.388;13.096;2023-12-14T10:46:09;22.40;;;12.00;;
3563;SDS011;1796;52.388;13.096;2023-12-14T10:48:36;16.00;;;10.50;;
3563;SDS011;1796;52.388;13.096;2023-12-14T10:51:04;19.83;;;11.60;;
3563;SDS011;1796;52.388;13.096;2023-12-14T10:53:33;19.50;;;10.97;;
3563;SDS011;1796;52.388;13.096;2023-12-14T10:56:01;28.93;;;11.50;;
3563;SDS011;1796;52.388;13.096;2023-12-14T10:58:45;20.17;;;11.67;;
3563;SDS011;1796;52.388;13.096;2023-12-14T11:01:13;21.37;;;13.20;;
3563;SDS011;1796;52.388;13.096;2023-12-14T11:03:41;27.50;;;12.83;;
3563;SDS011;1796;52.388;13.096;2023-12-14T11:08:58;24.17;;;12.33;;
3563;SDS011;1796;52.388;13.096;2023-12-14T11:11:30;23.60;;;12.47;;
3563;SDS011;1796;52.388;13.096;2023-12-14T11:14:08;21.40;;;12.10;;
3563;SDS011;1796;52.388;13.096;2023-12-14T11:16:37;24.00;;;13.43;;
3563;SDS011;1796;52.388;13.096;2023-12-14T11:19:28;19.97;;;13.00;;
3563;SDS011;1796;52.388;13.096;2023-12-14T11:22:00;24.80;;;14.20;;
3563;SDS011;1796;52.388;13.096;2023-12-14T11:24:50;23.27;;;13.37;;
3563;SDS011;1796;52.388;13.096;2023-12-14T11:27:19;25.83;;;13.53;;
3563;SDS011;1796;52.388;13.096;2023-12-14T11:29:53;20.37;;;12.60;;
3563;SDS011;1796;52.388;13.096;2023-12-14T11:32:20;24.00;;;13.00;;
3563;SDS011;1796;52.388;13.096;2023-12-14T11:34:47;20.30;;;13.07;;
3563;SDS011;1796;52.388;13.096;2023-12-14T11:37:20;26.10;;;12.73;;
3563;SDS011;1796;52.388;13.096;2023-12-14T11:40:00;24.40;;;12.70;;
3563;SDS011;1796;52.388;13.096;2023-12-14T11:42:30;25.00;;;12.00;;
3563;SDS011;1796;52.388;13.096;2023-12-14T11:44:59;23.27;;;12.23;;
3563;SDS011;1796;52.388;13.096;2023-12-14T11:47:25;23.43;;;12.10;;
3563;SDS011;1796;52.388;13.096;2023-12-14T11:49:52;24.53;;;12.33;;
3563;SDS011;1796;52.388;13.096;2023-12-14T11:52:19;21.40;;;12.27;;
3563;SDS011;1796;52.388;13.096;2023-12-14T11:54:48;22.20;;;12.90;;
3563;SDS011;1796;52.388;13.096;2023-12-14T11:57:15;23.70;;;12.43;;
3563;SDS011;1796;52.388;13.096;2023-12-14T11:59:42;22.63;;;11.00;;
3563;SDS011;1796;52.388;13.096;2023-12-14T12:02:12;23.47;;;12.70;;
3563;SDS011;1796;52.388;13.096;2023-12-14T12:04:50;22.83;;;10.80;;
3563;SDS011;1796;52.388;13.096;2023-12-14T12:07:18;23.27;;;13.27;;
3563;SDS011;1796;52.388;13.096;2023-12-14T12:09:46;23.70;;;14.60;;
3563;SDS011;1796;52.388;13.096;2023-12-14T12:12:13;25.23;;;12.90;;
3563;SDS011;1796;52.388;13.096;2023-12-14T12:14:40;25.53;;;13.10;;
3563;SDS011;1796;52.388;13.096;2023-12-14T12:17:08;23.77;;;13.70;;
3563;SDS011;1796;52.388;13.096;2023-12-14T12:19:36;22.97;;;13.30;;
3563;SDS011;1796;52.388;13.096;2023-12-14T12:22:03;25.00;;;14.40;;
3563;SDS011;1796;52.388;13.096;2023-12-14T12:24:30;24.20;;;14.07;;
3563;SDS011;1796;52.388;13.096;2023-12-14T12:26:57;28.53;;;14.60;;
3563;SDS011;1796;52.388;13.096;2023-12-14T12:29:24;27.07;;;14.27;;
3563;SDS011;1796;52.388;13.096;2023-12-14T12:31:51;28.10;;;14.60;;
3563;SDS011;1796;52.388;13.096;2023-12-14T12:34:18;25.90;;;15.20;;
3563;SDS011;1796;52.388;13.096;2023-12-14T12:36:46;22.40;;;13.80;;
3563;SDS011;1796;52.388;13.096;2023-12-14T12:39:13;30.63;;;15.00;;
3563;SDS011;1796;52.388;13.096;2023-12-14T12:41:40;26.83;;;13.73;;
3563;SDS011;1796;52.388;13.096;2023-12-14T12:44:07;29.47;;;15.13;;
3563;SDS011;1796;52.388;13.096;2023-12-14T12:46:35;31.90;;;14.10;;
3563;SDS011;1796;52.388;13.096;2023-12-14T12:49:02;24.60;;;14.67;;
3563;SDS011;1796;52.388;13.096;2023-12-14T12:51:30;24.57;;;13.00;;
3563;SDS011;1796;52.388;13.096;2023-12-14T12:53:59;24.93;;;14.40;;
3563;SDS011;1796;52.388;13.096;2023-12-14T12:56:26;27.27;;;13.10;;
3563;SDS011;1796;52.388;13.096;2023-12-14T12:58:53;20.87;;;13.27;;
3563;SDS011;1796;52.388;13.096;2023-12-14T13:01:20;22.97;;;13.97;;
3563;SDS011;1796;52.388;13.096;2023-12-14T13:03:51;20.90;;;12.43;;
3563;SDS011;1796;52.388;13.096;2023-12-14T13:06:19;21.30;;;12.93;;
3563;SDS011;1796;52.388;13.096;2023-12-14T13:08:46;20.13;;;13.47;;
3563;SDS011;1796;52.388;13.096;2023-12-14T13:11:14;21.60;;;12.47;;
3563;SDS011;1796;52.388;13.096;2023-12-14T13:13:41;23.97;;;13.00;;
3563;SDS011;1796;52.388;13.096;2023-12-14T13:16:08;23.93;;;13.23;;
3563;SDS011;1796;52.388;13.096;2023-12-14T13:18:37;22.47;;;12.97;;
3563;SDS011;1796;52.388;13.096;2023-12-14T13:21:04;23.83;;;12.30;;
3563;SDS011;1796;52.388;13.096;2023-12-14T13:23:31;20.10;;;12.67;;
3563;SDS011;1796;52.388;13.096;2023-12-14T13:25:59;22.33;;;13.17;;
3563;SDS011;1796;52.388;13.096;2023-12-14T13:28:27;20.27;;;12.30;;
3563;SDS011;1796;52.388;13.096;2023-12-14T13:30:54;17.83;;;12.03;;
3563;SDS011;1796;52.388;13.096;2023-12-14T13:33:21;19.00;;;11.70;;
3563;SDS011;1796;52.388;13.096;2023-12-14T13:35:48;23.40;;;12.07;;
3563;SDS011;1796;52.388;13.096;2023-12-14T13:38:15;17.83;;;11.70;;
3563;SDS011;1796;52.388;13.096;2023-12-14T13:40:42;18.30;;;12.03;;
3563;SDS011;1796;52.388;13.096;2023-12-14T13:43:09;33.13;;;11.60;;
3563;SDS011;1796;52.388;13.096;2023-12-14T13:45:38;18.97;;;12.03;;
3563;SDS011;1796;52.388;13.096;2023-12-14T13:48:07;16.77;;;10.73;;
3563;SDS011;1796;52.388;13.096;2023-12-14T13:50:34;19.30;;;10.73;;
3563;SDS011;1796;52.388;13.096;2023-12-14T13:53:01;17.40;;;10.93;;
3563;SDS011;1796;52.388;13.096;2023-12-14T13:55:29;16.03;;;9.80;;
3563;SDS011;1796;52.388;13.096;2023-12-14T13:57:56;15.73;;;11.00;;
3563;SDS011;1796;52.388;13.096;2023-12-14T14:00:25;15.03;;;11.30;;
3563;SDS011;1796;52.388;13.096;2023-12-14T14:02:54;15.93;;;10.97;;
3563;SDS011;1796;52.388;13.096;2023-12-14T14:05:23;16.23;;;11.20;;
3563;SDS011;1796;52.388;13.096;2023-12-14T14:07:50;16.37;;;10.30;;
3563;SDS011;1796;52.388;13.096;2023-12-14T14:10:17;17.50;;;10.90;;
3563;SDS011;1796;52.388;13.096;2023-12-14T14:12:45;15.33;;;10.50;;
3563;SDS011;1796;52.388;13.096;2023-12-14T14:15:12;16.13;;;10.20;;
3563;SDS011;1796;52.388;13.096;2023-12-14T14:17:39;15.17;;;11.00;;
3563;SDS011;1796;52.388;13.096;2023-12-14T14:20:11;19.67;;;11.00;;
3563;SDS011;1796;52.388;13.096;2023-12-14T14:22:41;16.80;;;10.60;;
3563;SDS011;1796;52.388;13.096;2023-12-14T14:25:08;16.73;;;11.43;;
3563;SDS011;1796;52.388;13.096;2023-12-14T14:27:35;17.90;;;11.30;;
3563;SDS011;1796;52.388;13.096;2023-12-14T14:30:03;17.23;;;11.40;;
3563;SDS011;1796;52.388;13.096;2023-12-14T14:32:31;19.93;;;11.20;;
3563;SDS011;1796;52.388;13.096;2023-12-14T14:35:00;15.57;;;10.10;;
3563;SDS011;1796;52.388;13.096;2023-12-14T14:37:29;16.53;;;11.93;;
3563;SDS011;1796;52.388;13.096;2023-12-14T14:39:56;15.60;;;11.57;;
3563;SDS011;1796;52.388;13.096;2023-12-14T14:42:23;14.60;;;10.50;;
3563;SDS011;1796;52.388;13.096;2023-12-14T14:44:51;18.13;;;11.60;;
3563;SDS011;1796;52.388;13.096;2023-12-14T14:47:18;14.80;;;10.43;;
3563;SDS011;1796;52.388;13.096;2023-12-14T14:49:45;16.67;;;10.97;;